Terminal Aerodrome Forecast
Issued by NWS Charleston, WV

Current Version | Previous Version | Graphics & Text | Print | Product List | Glossary On
Versions: 1 2 3 4 5 6 7 8 9 10 11 12 13 14 15 16 17 18 19 20 21 22 23 24 25 26 27
000
FTUS41 KRLX 190700 AAB
TAFBKW
TAF AMD
KBKW 190759Z 1908/2006 15005KT 6SM RA BR OVC040
      TEMPO 1908/1910 3SM RA BR
     FM191000 16007KT 6SM RA BR OVC008
     FM191500 16011G17KT 5SM SHRA BR OVC008
     FM191800 16010G15KT 3SM SHRA BR OVC012
     FM192300 15007KT 5SM SHRA BR OVC020
     FM200200 15005KT P6SM BKN015
     FM200300 15005KT P6SM BKN010=

USA.gov is the U.S. government's official web portal to all federal, state and local government web resources and services.